Stenlille, Denmark
Current Conditions -  °F | °C
As of 9:20 PM on Thursday 29 Jan 2015 (Local Time) from EKRK Reporting Station
Broken Clouds Broken Clouds  
Wind Chill: 25°   Ceiling: 2000
Heat Index: 34°   Visibility: 6mi
Dew Point: 32°   Wind: 12mph
Humidity: 93%   Direction: 180°S
Pressure: 28.79"   Gusts: NA
Location:  55.54°N, 11.59°E
Report Text: EKRK 292020Z AUTO 18010KT 9999NDV FEW016/// BKN020///BKN049/// 01/M00 Q0975
Loading
Personal Weather Stations






























Interactive Weather Map New forecast layout! Learn more

10-Day Weather Forecast

Advertisements
Track Severe Weather on mobile